createdAt,value
2023-03-26T00:02:14.341Z,11.60
2023-03-26T00:04:43.754Z,11.60
2023-03-26T00:07:12.988Z,11.60
2023-03-26T00:09:39.895Z,11.60
2023-03-26T00:12:09.271Z,11.60
2023-03-26T00:14:36.161Z,11.60
2023-03-26T00:17:09.583Z,11.60
2023-03-26T00:19:38.985Z,11.60
2023-03-26T00:22:08.161Z,11.50
2023-03-26T00:24:39.454Z,11.60
2023-03-26T00:27:08.794Z,11.60
2023-03-26T00:29:35.782Z,11.60
2023-03-26T00:32:02.820Z,11.50
2023-03-26T00:34:34.320Z,11.50
2023-03-26T00:37:05.766Z,11.50
2023-03-26T00:39:39.283Z,11.50
2023-03-26T00:42:09.261Z,11.60
2023-03-26T00:44:36.239Z,11.60
2023-03-26T00:47:07.743Z,11.60
2023-03-26T00:49:37.684Z,11.60
2023-03-26T00:52:08.742Z,11.60
2023-03-26T00:54:38.934Z,11.60
2023-03-26T00:57:10.349Z,11.60
2023-03-26T00:59:43.285Z,11.60
2023-03-26T01:02:17.022Z,11.60
2023-03-26T01:05:02.667Z,11.60
2023-03-26T01:07:30.069Z,11.50
2023-03-26T01:10:00.869Z,11.60
2023-03-26T01:12:34.167Z,11.50
2023-03-26T01:15:08.245Z,11.50
2023-03-26T01:17:37.858Z,11.50
2023-03-26T01:20:17.226Z,11.50
2023-03-26T01:22:54.611Z,11.50
2023-03-26T01:25:32.463Z,11.40
2023-03-26T01:28:00.916Z,11.40
2023-03-26T01:31:01.350Z,11.40
2023-03-26T01:33:45.454Z,11.40
2023-03-26T01:36:37.369Z,11.30
2023-03-26T01:39:57.040Z,11.30
2023-03-26T01:42:39.860Z,11.30
2023-03-26T01:45:21.134Z,11.20
2023-03-26T01:47:50.847Z,11.20
2023-03-26T01:50:19.924Z,11.20
2023-03-26T01:52:49.065Z,11.20
2023-03-26T01:55:16.885Z,11.20
2023-03-26T01:58:07.940Z,11.20
2023-03-26T02:01:24.279Z,11.20
2023-03-26T02:04:23.886Z,11.20
2023-03-26T02:07:10.422Z,11.20
2023-03-26T02:09:47.038Z,11.20
2023-03-26T02:12:20.826Z,11.20
2023-03-26T02:14:52.372Z,11.20
2023-03-26T02:17:24.445Z,11.20
2023-03-26T02:19:56.326Z,11.20
2023-03-26T02:22:29.718Z,11.20
2023-03-26T02:25:00.247Z,11.20
2023-03-26T02:27:27.740Z,11.20
2023-03-26T02:29:54.780Z,11.20
2023-03-26T02:32:27.341Z,11.20
2023-03-26T02:34:58.669Z,11.20
2023-03-26T02:37:26.062Z,11.20
2023-03-26T02:40:06.002Z,11.20
2023-03-26T02:42:32.870Z,11.20
2023-03-26T02:45:02.305Z,11.20
2023-03-26T02:47:51.009Z,11.20
2023-03-26T02:50:41.539Z,11.20
2023-03-26T02:53:34.266Z,11.20
2023-03-26T02:56:36.052Z,11.10
2023-03-26T02:59:36.605Z,11.10
2023-03-26T03:02:29.114Z,11.10
2023-03-26T03:05:05.843Z,11.10
2023-03-26T03:07:38.553Z,11.10
2023-03-26T03:10:10.510Z,11.10
2023-03-26T03:12:58.622Z,11.10
2023-03-26T03:15:31.129Z,11.10
2023-03-26T03:17:58.114Z,11.10
2023-03-26T03:20:30.208Z,11.10
2023-03-26T03:22:57.045Z,11.10
2023-03-26T03:25:26.518Z,11.10
2023-03-26T03:27:56.252Z,11.10
2023-03-26T03:30:25.994Z,11.20
2023-03-26T03:33:20.735Z,11.10
2023-03-26T03:35:53.357Z,11.20
2023-03-26T03:38:25.558Z,11.10
2023-03-26T03:40:58.380Z,11.10
2023-03-26T03:43:30.429Z,11.10
2023-03-26T03:46:13.263Z,11.10
2023-03-26T03:48:49.663Z,11.10
2023-03-26T03:51:23.913Z,11.10
2023-03-26T03:53:59.170Z,11.10
2023-03-26T03:57:02.197Z,11.10
2023-03-26T03:59:47.518Z,11.20
2023-03-26T04:02:30.255Z,11.10
2023-03-26T04:05:08.678Z,11.10
2023-03-26T04:07:45.168Z,11.10
2023-03-26T04:10:38.593Z,11.10
2023-03-26T04:13:26.301Z,11.10
2023-03-26T04:15:53.413Z,11.10
2023-03-26T04:18:22.217Z,11.20
2023-03-26T04:20:51.303Z,11.10
2023-03-26T04:23:26.408Z,11.20
2023-03-26T04:26:07.365Z,11.10
2023-03-26T04:29:06.114Z,11.20
2023-03-26T04:31:38.198Z,11.20
2023-03-26T04:34:20.085Z,11.10
2023-03-26T04:37:19.751Z,11.20
2023-03-26T04:39:55.089Z,11.20
2023-03-26T04:42:24.522Z,11.10
2023-03-26T04:45:11.778Z,11.10
2023-03-26T04:47:41.512Z,11.10
2023-03-26T04:50:11.103Z,11.10
2023-03-26T04:52:45.278Z,11.10
2023-03-26T04:55:46.884Z,11.10
2023-03-26T04:58:32.825Z,11.10
2023-03-26T05:01:10.136Z,11.00
2023-03-26T05:03:45.975Z,11.10
2023-03-26T05:06:19.761Z,11.00
2023-03-26T05:08:46.692Z,11.00
2023-03-26T05:11:24.944Z,11.00
2023-03-26T05:13:54.052Z,11.00
2023-03-26T05:16:24.758Z,11.00
2023-03-26T05:19:03.424Z,11.00
2023-03-26T05:21:33.945Z,10.90
2023-03-26T05:24:03.326Z,10.90
2023-03-26T05:26:36.675Z,10.90
2023-03-26T05:29:07.195Z,10.90
2023-03-26T05:31:37.733Z,10.90
2023-03-26T05:34:06.627Z,10.90
2023-03-26T05:36:33.783Z,10.90
2023-03-26T05:39:10.151Z,10.90
2023-03-26T05:41:55.462Z,10.90
2023-03-26T05:44:28.342Z,11.00
2023-03-26T05:46:55.714Z,11.00
2023-03-26T05:49:28.640Z,11.10
2023-03-26T05:51:57.730Z,11.10
2023-03-26T05:54:34.877Z,11.10
2023-03-26T05:57:32.396Z,11.20
2023-03-26T06:00:20.215Z,11.20
2023-03-26T06:02:50.630Z,11.20
2023-03-26T06:05:53.095Z,11.20
2023-03-26T06:08:34.378Z,11.30
2023-03-26T06:11:08.040Z,11.30
2023-03-26T06:13:40.486Z,11.30
2023-03-26T06:16:26.165Z,11.40
2023-03-26T06:19:08.817Z,11.40
2023-03-26T06:21:52.256Z,11.40
2023-03-26T06:24:25.231Z,11.40
2023-03-26T06:27:03.305Z,11.40
2023-03-26T06:29:51.161Z,11.50
2023-03-26T06:32:34.309Z,11.50
2023-03-26T06:35:07.084Z,11.50
2023-03-26T06:37:36.326Z,11.50
2023-03-26T06:40:10.296Z,11.50
2023-03-26T06:43:06.712Z,11.60
2023-03-26T06:45:55.346Z,11.60
2023-03-26T06:48:33.914Z,11.70
2023-03-26T06:51:20.476Z,11.70
2023-03-26T06:54:08.028Z,11.70
2023-03-26T06:56:50.777Z,11.70
2023-03-26T06:59:41.960Z,11.80
2023-03-26T07:02:27.326Z,11.80
2023-03-26T07:05:15.635Z,11.90
2023-03-26T07:08:01.103Z,11.90
2023-03-26T07:10:49.488Z,12.00
2023-03-26T07:13:57.211Z,12.00
2023-03-26T07:16:45.313Z,12.00
2023-03-26T07:19:14.846Z,12.10
2023-03-26T07:21:42.920Z,12.10
2023-03-26T07:24:36.366Z,12.10
2023-03-26T07:27:24.829Z,12.10
2023-03-26T07:29:59.529Z,12.10
2023-03-26T07:33:01.392Z,12.10
2023-03-26T07:35:50.270Z,12.10
2023-03-26T07:38:54.073Z,12.10
2023-03-26T07:42:25.371Z,12.10
2023-03-26T07:45:45.121Z,12.10
2023-03-26T07:48:40.741Z,12.10
2023-03-26T07:51:12.715Z,12.10
2023-03-26T07:53:54.554Z,12.10
2023-03-26T07:57:07.062Z,12.00
2023-03-26T07:59:59.616Z,12.00
2023-03-26T08:03:21.855Z,12.00
2023-03-26T08:06:39.575Z,11.90
2023-03-26T08:09:46.946Z,11.90
2023-03-26T08:12:55.039Z,11.80
2023-03-26T08:15:55.208Z,11.80
2023-03-26T08:18:55.945Z,11.80
2023-03-26T08:21:40.072Z,11.80
2023-03-26T08:24:43.399Z,11.80
2023-03-26T08:27:40.370Z,11.80
2023-03-26T08:30:24.644Z,11.80
2023-03-26T08:33:16.621Z,11.80
2023-03-26T08:35:45.437Z,11.70
2023-03-26T08:38:23.656Z,11.70
2023-03-26T08:41:25.074Z,11.70
2023-03-26T08:44:40.644Z,11.70
2023-03-26T08:47:35.537Z,11.70
2023-03-26T08:50:42.836Z,11.70
2023-03-26T08:53:32.092Z,11.70
2023-03-26T08:56:51.384Z,11.70
2023-03-26T08:59:53.386Z,11.70
2023-03-26T09:02:44.907Z,11.60
2023-03-26T09:05:47.866Z,11.60
2023-03-26T09:08:53.802Z,11.60
2023-03-26T09:11:56.977Z,11.50
2023-03-26T09:14:35.510Z,11.50
2023-03-26T09:17:50.186Z,11.50
2023-03-26T09:20:31.347Z,11.50
2023-03-26T09:23:09.809Z,11.50
2023-03-26T09:26:03.991Z,11.50
2023-03-26T09:28:57.098Z,11.50
2023-03-26T09:31:37.345Z,11.50
2023-03-26T09:34:27.275Z,11.50
2023-03-26T09:37:11.559Z,11.40
2023-03-26T09:40:17.375Z,11.40
2023-03-26T09:43:48.681Z,11.40
2023-03-26T09:46:37.191Z,11.30
2023-03-26T09:49:28.953Z,11.30
2023-03-26T09:52:21.830Z,11.30
2023-03-26T09:55:05.204Z,11.30
2023-03-26T09:57:58.010Z,11.40
2023-03-26T10:01:27.636Z,11.30
2023-03-26T10:04:27.351Z,11.30
2023-03-26T10:07:21.885Z,11.30
2023-03-26T10:10:02.003Z,11.40
2023-03-26T10:12:46.083Z,11.30
2023-03-26T10:15:36.559Z,11.40
2023-03-26T10:18:36.950Z,11.40
2023-03-26T10:21:29.625Z,11.40
2023-03-26T10:24:52.115Z,11.40
2023-03-26T10:27:46.427Z,11.50
2023-03-26T10:30:54.083Z,11.50
2023-03-26T10:33:52.787Z,11.40
2023-03-26T10:36:38.360Z,11.50
2023-03-26T10:39:38.166Z,11.50
2023-03-26T10:42:31.223Z,11.50
2023-03-26T10:45:11.664Z,11.60
2023-03-26T10:48:12.356Z,11.70
2023-03-26T10:50:57.752Z,11.90
2023-03-26T10:53:49.319Z,12.10
2023-03-26T10:56:40.448Z,12.20
2023-03-26T10:59:15.675Z,12.30
2023-03-26T11:02:12.078Z,12.30
2023-03-26T11:04:44.450Z,12.40
2023-03-26T11:07:44.006Z,12.40
2023-03-26T11:10:52.883Z,12.40
2023-03-26T11:13:57.534Z,12.50
2023-03-26T11:17:02.828Z,12.50
2023-03-26T11:20:04.865Z,12.50
2023-03-26T11:22:50.688Z,12.50
2023-03-26T11:25:53.920Z,12.50
2023-03-26T11:29:03.259Z,12.60
2023-03-26T11:32:03.530Z,12.60
2023-03-26T11:35:18.000Z,12.60
2023-03-26T11:38:16.153Z,12.60
2023-03-26T11:40:51.355Z,12.60
2023-03-26T11:43:37.094Z,12.60
2023-03-26T11:46:14.736Z,12.60
2023-03-26T11:48:57.463Z,12.60
2023-03-26T11:51:35.570Z,12.60
2023-03-26T11:54:07.979Z,12.60
2023-03-26T11:57:06.308Z,12.70
2023-03-26T11:59:57.984Z,12.70
2023-03-26T12:02:39.533Z,12.80
2023-03-26T12:05:19.578Z,12.90
2023-03-26T12:08:02.684Z,13.00
2023-03-26T12:10:42.674Z,13.10
2023-03-26T12:13:34.166Z,13.10
2023-03-26T12:16:10.345Z,13.20
2023-03-26T12:18:39.754Z,13.30
2023-03-26T12:21:24.018Z,13.30
2023-03-26T12:24:04.929Z,13.30
2023-03-26T12:26:44.729Z,13.40
2023-03-26T12:29:16.487Z,13.60
2023-03-26T12:32:14.181Z,13.70
2023-03-26T12:34:43.878Z,13.80
2023-03-26T12:37:39.280Z,13.90
2023-03-26T12:40:36.671Z,14.10
2023-03-26T12:44:53.355Z,14.10
2023-03-26T12:47:56.968Z,14.10
2023-03-26T12:49:28.424Z,14.20
2023-03-26T12:52:21.198Z,14.30
2023-03-26T12:55:12.022Z,14.40
2023-03-26T12:57:56.510Z,14.50
2023-03-26T13:00:42.245Z,14.70
2023-03-26T13:03:46.650Z,14.90
2023-03-26T13:07:01.905Z,15.20
2023-03-26T13:10:05.318Z,15.60
2023-03-26T13:13:10.826Z,15.90
2023-03-26T13:15:52.642Z,16.20
2023-03-26T13:18:59.200Z,16.30
2023-03-26T13:22:01.318Z,16.40
2023-03-26T13:24:55.753Z,16.40
2023-03-26T13:27:56.507Z,16.40
2023-03-26T13:30:43.513Z,16.50
2023-03-26T13:33:43.700Z,16.70
2023-03-26T13:36:24.487Z,17.00
2023-03-26T13:39:12.609Z,17.40
2023-03-26T13:42:07.072Z,17.70
2023-03-26T13:45:04.934Z,18.00
2023-03-26T13:47:41.089Z,18.30
2023-03-26T13:50:40.342Z,18.50
2023-03-26T13:53:18.262Z,18.60
2023-03-26T13:55:59.043Z,18.80
2023-03-26T13:58:38.063Z,18.90
2023-03-26T14:01:16.596Z,19.00
2023-03-26T14:04:17.707Z,18.80
2023-03-26T14:06:59.621Z,18.40
2023-03-26T14:09:46.414Z,18.20
2023-03-26T14:12:31.507Z,17.70
2023-03-26T14:15:16.355Z,17.40
2023-03-26T14:17:58.367Z,17.20
2023-03-26T14:20:57.184Z,17.10
2023-03-26T14:23:54.308Z,17.10
2023-03-26T14:27:06.205Z,17.10
2023-03-26T14:29:56.722Z,17.20
2023-03-26T14:32:53.777Z,17.40
2023-03-26T14:35:39.599Z,17.60
2023-03-26T14:39:12.644Z,17.80
2023-03-26T14:42:01.340Z,17.90
2023-03-26T14:44:52.212Z,18.10
2023-03-26T14:47:27.095Z,18.20
2023-03-26T14:50:27.175Z,18.30
2023-03-26T14:53:05.787Z,18.30
2023-03-26T14:55:56.571Z,18.20
2023-03-26T14:58:52.665Z,18.10
2023-03-26T15:01:47.241Z,18.10
2023-03-26T15:04:32.430Z,18.00
2023-03-26T15:08:04.154Z,18.00
2023-03-26T15:11:20.390Z,17.90
2023-03-26T15:14:38.990Z,17.60
2023-03-26T15:17:46.725Z,17.40
2023-03-26T15:20:34.041Z,17.20
2023-03-26T15:23:37.401Z,17.00
2023-03-26T15:26:32.011Z,16.90
2023-03-26T15:29:29.998Z,16.70
2023-03-26T15:32:30.559Z,16.50
2023-03-26T15:35:34.471Z,16.40
2023-03-26T15:39:17.086Z,16.30
2023-03-26T15:42:12.798Z,16.20
2023-03-26T15:45:11.581Z,16.10
2023-03-26T15:47:55.725Z,16.00
2023-03-26T15:50:56.661Z,15.90
2023-03-26T15:53:43.784Z,15.80
2023-03-26T15:56:38.411Z,15.60
2023-03-26T15:59:40.704Z,15.40
2023-03-26T16:02:43.102Z,15.00
2023-03-26T16:05:32.953Z,14.50
2023-03-26T16:08:52.799Z,14.10
2023-03-26T16:11:59.826Z,13.60
2023-03-26T16:14:42.115Z,13.10
2023-03-26T16:17:23.180Z,12.70
2023-03-26T16:20:08.832Z,12.30
2023-03-26T16:23:01.606Z,12.10
2023-03-26T16:25:33.265Z,11.90
2023-03-26T16:28:26.342Z,11.60
2023-03-26T16:31:10.585Z,11.50
2023-03-26T16:34:26.207Z,11.40
2023-03-26T16:36:54.263Z,11.30
2023-03-26T16:39:40.100Z,11.20
2023-03-26T16:42:16.340Z,11.20
2023-03-26T16:45:14.883Z,11.10
2023-03-26T16:48:00.930Z,11.10
2023-03-26T16:50:57.595Z,11.10
2023-03-26T16:53:52.492Z,11.00
2023-03-26T16:56:45.988Z,11.10
2023-03-26T16:59:38.787Z,11.00
2023-03-26T17:02:43.231Z,11.00
2023-03-26T17:06:02.058Z,11.00
2023-03-26T17:08:57.483Z,11.00
2023-03-26T17:12:01.954Z,11.00
2023-03-26T17:14:50.870Z,10.90
2023-03-26T17:18:00.791Z,11.00
2023-03-26T17:20:43.658Z,11.00
2023-03-26T17:23:28.778Z,11.00
2023-03-26T17:26:08.482Z,11.00
2023-03-26T17:29:04.718Z,11.00
2023-03-26T17:32:14.921Z,11.10
2023-03-26T17:34:52.728Z,11.10
2023-03-26T17:37:22.748Z,11.10
2023-03-26T17:39:59.831Z,11.10
2023-03-26T17:42:38.119Z,11.10
2023-03-26T17:45:10.681Z,11.20
2023-03-26T17:47:50.052Z,11.20
2023-03-26T17:50:47.193Z,11.20
2023-03-26T17:53:36.920Z,11.20
2023-03-26T17:56:14.668Z,11.20
2023-03-26T17:58:48.934Z,11.30
2023-03-26T18:01:31.308Z,11.30
2023-03-26T18:04:04.056Z,11.30
2023-03-26T18:06:58.076Z,11.30
2023-03-26T18:09:56.378Z,11.40
2023-03-26T18:13:04.154Z,11.40
2023-03-26T18:16:11.015Z,11.50
2023-03-26T18:19:17.681Z,11.50
2023-03-26T18:21:57.335Z,11.50
2023-03-26T18:24:27.434Z,11.50
2023-03-26T18:27:18.951Z,11.50
2023-03-26T18:30:02.423Z,11.50
2023-03-26T18:32:33.881Z,11.50
2023-03-26T18:35:24.439Z,11.50
2023-03-26T18:37:59.854Z,11.40
2023-03-26T18:40:42.951Z,11.40
2023-03-26T18:43:34.503Z,11.40
2023-03-26T18:46:04.188Z,11.40
2023-03-26T18:48:33.711Z,11.30
2023-03-26T18:51:08.862Z,11.30
2023-03-26T18:53:46.725Z,11.30
2023-03-26T18:56:38.469Z,11.30
2023-03-26T18:59:21.776Z,11.20
2023-03-26T19:01:51.770Z,11.20
2023-03-26T19:04:19.325Z,11.20
2023-03-26T19:06:46.727Z,11.20
2023-03-26T19:09:31.026Z,11.20
2023-03-26T19:12:33.240Z,11.20
2023-03-26T19:15:11.572Z,11.20
2023-03-26T19:17:59.726Z,11.20
2023-03-26T19:20:39.055Z,11.20
2023-03-26T19:23:09.935Z,11.20
2023-03-26T19:25:48.107Z,11.20
2023-03-26T19:28:33.509Z,11.20
2023-03-26T19:31:15.646Z,11.20
2023-03-26T19:33:55.116Z,11.20
2023-03-26T19:36:34.732Z,11.20
2023-03-26T19:39:02.544Z,11.20
2023-03-26T19:41:38.647Z,11.20
2023-03-26T19:44:19.769Z,11.30
2023-03-26T19:46:52.899Z,11.20
2023-03-26T19:50:13.276Z,11.20
2023-03-26T19:52:42.534Z,11.20
2023-03-26T19:55:22.457Z,11.20
2023-03-26T19:57:49.386Z,11.20
2023-03-26T20:00:16.580Z,11.20
2023-03-26T20:02:47.036Z,11.20
2023-03-26T20:05:23.099Z,11.20
2023-03-26T20:07:54.232Z,11.20
2023-03-26T20:10:24.304Z,11.20
2023-03-26T20:12:51.091Z,11.20
2023-03-26T20:15:30.974Z,11.20
2023-03-26T20:18:00.844Z,11.20
2023-03-26T20:20:30.885Z,11.20
2023-03-26T20:23:00.246Z,11.20
2023-03-26T20:25:33.721Z,11.20
2023-03-26T20:28:02.994Z,11.20
2023-03-26T20:33:12.116Z,11.20
2023-03-26T20:35:45.600Z,11.30
2023-03-26T20:38:19.820Z,11.20
2023-03-26T20:40:49.650Z,11.30
2023-03-26T20:43:21.613Z,11.30
2023-03-26T20:45:51.875Z,11.30
2023-03-26T20:48:21.600Z,11.30
2023-03-26T20:51:01.788Z,11.30
2023-03-26T20:53:33.340Z,11.30
2023-03-26T20:56:03.438Z,11.30
2023-03-26T20:58:33.247Z,11.30
2023-03-26T21:01:03.251Z,11.20
2023-03-26T21:03:38.064Z,11.20
2023-03-26T21:06:10.632Z,11.20
2023-03-26T21:08:42.038Z,11.20
2023-03-26T21:11:26.740Z,11.10
2023-03-26T21:14:07.471Z,11.10
2023-03-26T21:16:35.148Z,11.10
2023-03-26T21:19:09.078Z,11.00
2023-03-26T21:21:59.416Z,11.00
2023-03-26T21:25:11.898Z,10.90
2023-03-26T21:28:06.607Z,10.90
2023-03-26T21:30:37.416Z,10.90
2023-03-26T21:33:05.345Z,10.80
2023-03-26T21:35:38.422Z,10.80
2023-03-26T21:38:09.346Z,10.80
2023-03-26T21:40:39.008Z,10.70
2023-03-26T21:43:11.204Z,10.60
2023-03-26T21:45:38.868Z,10.60
2023-03-26T21:48:13.366Z,10.60
2023-03-26T21:50:40.854Z,10.50
2023-03-26T21:53:12.553Z,10.50
2023-03-26T21:56:12.254Z,10.40
2023-03-26T21:59:01.911Z,10.40
2023-03-26T22:01:40.143Z,10.40
2023-03-26T22:05:00.544Z,10.40
2023-03-26T22:07:56.663Z,10.30
2023-03-26T22:10:32.786Z,10.30
2023-03-26T22:13:01.633Z,10.20
2023-03-26T22:15:30.910Z,10.20
2023-03-26T22:18:05.487Z,10.20
2023-03-26T22:20:34.761Z,10.20
2023-03-26T22:23:04.833Z,10.10
2023-03-26T22:25:32.913Z,10.10
2023-03-26T22:28:04.408Z,10.00
2023-03-26T22:30:37.359Z,10.00
2023-03-26T22:33:10.903Z,10.00
2023-03-26T22:35:47.303Z,10.00
2023-03-26T22:38:17.866Z,9.90
2023-03-26T22:40:53.855Z,9.80
2023-03-26T22:43:20.825Z,9.80
2023-03-26T22:45:54.777Z,9.80
2023-03-26T22:48:26.587Z,9.80
2023-03-26T22:51:08.046Z,9.70
2023-03-26T22:53:37.845Z,9.70
2023-03-26T22:56:08.048Z,9.60
2023-03-26T22:58:38.097Z,9.60
2023-03-26T23:01:11.693Z,9.60
2023-03-26T23:03:39.386Z,9.50
2023-03-26T23:06:10.289Z,9.50
2023-03-26T23:08:40.489Z,9.50
2023-03-26T23:11:15.148Z,9.50
2023-03-26T23:13:48.442Z,9.50
2023-03-26T23:16:21.527Z,9.50
2023-03-26T23:18:52.917Z,9.50
2023-03-26T23:21:22.615Z,9.50
2023-03-26T23:23:52.022Z,9.50
2023-03-26T23:26:19.070Z,9.50
2023-03-26T23:28:45.940Z,9.50
2023-03-26T23:31:15.000Z,9.50
2023-03-26T23:33:50.218Z,9.50
2023-03-26T23:36:23.556Z,9.50
2023-03-26T23:38:56.057Z,9.50
2023-03-26T23:41:25.320Z,9.40
2023-03-26T23:43:55.448Z,9.40
2023-03-26T23:46:25.825Z,9.30
2023-03-26T23:48:59.492Z,9.30
2023-03-26T23:51:32.192Z,9.30
2023-03-26T23:54:00.523Z,9.20
2023-03-26T23:56:27.675Z,9.20
2023-03-26T23:58:55.179Z,9.20
